sensor_id;sensor_type;location;lat;lon;timestamp;pressure;altitude;pressure_sealevel;temperature;humidity
70411;BME280;57832;46.038;11.398;2022-07-25T00:00:49;96966.59;;;24.13;56.19
70411;BME280;57832;46.038;11.398;2022-07-25T00:03:14;96966.06;;;24.19;55.82
70411;BME280;57832;46.038;11.398;2022-07-25T00:05:40;96976.94;;;24.35;55.50
70411;BME280;57832;46.038;11.398;2022-07-25T00:08:05;96975.38;;;24.47;54.82
70411;BME280;57832;46.038;11.398;2022-07-25T00:10:31;96968.94;;;24.14;55.90
70411;BME280;57832;46.038;11.398;2022-07-25T00:12:57;96970.84;;;24.47;55.22
70411;BME280;57832;46.038;11.398;2022-07-25T00:15:22;96971.78;;;24.30;55.30
70411;BME280;57832;46.038;11.398;2022-07-25T00:17:47;96969.50;;;24.20;55.72
70411;BME280;57832;46.038;11.398;2022-07-25T00:20:13;96962.22;;;24.08;56.50
70411;BME280;57832;46.038;11.398;2022-07-25T00:22:39;96967.78;;;23.82;57.16
70411;BME280;57832;46.038;11.398;2022-07-25T00:25:04;96968.56;;;23.82;57.22
70411;BME280;57832;46.038;11.398;2022-07-25T00:27:30;96968.91;;;23.81;57.33
70411;BME280;57832;46.038;11.398;2022-07-25T00:29:56;96959.53;;;23.87;56.83
70411;BME280;57832;46.038;11.398;2022-07-25T00:32:21;96971.00;;;23.54;58.08
70411;BME280;57832;46.038;11.398;2022-07-25T00:34:47;96957.47;;;23.50;58.75
70411;BME280;57832;46.038;11.398;2022-07-25T00:37:12;96952.78;;;23.47;58.61
70411;BME280;57832;46.038;11.398;2022-07-25T00:39:38;96957.41;;;23.59;58.31
70411;BME280;57832;46.038;11.398;2022-07-25T00:42:03;96962.13;;;23.62;58.25
70411;BME280;57832;46.038;11.398;2022-07-25T00:44:31;96957.22;;;23.43;59.05
70411;BME280;57832;46.038;11.398;2022-07-25T00:46:57;96957.38;;;23.17;59.82
70411;BME280;57832;46.038;11.398;2022-07-25T00:49:23;96954.38;;;23.18;59.87
70411;BME280;57832;46.038;11.398;2022-07-25T00:51:51;96947.16;;;23.61;58.44
70411;BME280;57832;46.038;11.398;2022-07-25T00:54:17;96957.78;;;23.28;59.35
70411;BME280;57832;46.038;11.398;2022-07-25T00:56:42;96949.34;;;23.17;59.87
70411;BME280;57832;46.038;11.398;2022-07-25T00:59:08;96947.94;;;23.62;58.14
70411;BME280;57832;46.038;11.398;2022-07-25T01:01:34;96948.50;;;23.25;59.56
70411;BME280;57832;46.038;11.398;2022-07-25T01:04:00;96944.00;;;23.17;59.80
70411;BME280;57832;46.038;11.398;2022-07-25T01:06:26;96945.63;;;23.00;60.75
70411;BME280;57832;46.038;11.398;2022-07-25T01:08:53;96949.34;;;23.17;59.89
70411;BME280;57832;46.038;11.398;2022-07-25T01:11:19;96936.84;;;22.91;61.30
70411;BME280;57832;46.038;11.398;2022-07-25T01:13:45;96942.94;;;22.70;61.95
70411;BME280;57832;46.038;11.398;2022-07-25T01:16:11;96950.28;;;22.44;65.11
70411;BME280;57832;46.038;11.398;2022-07-25T01:18:36;96944.13;;;23.42;61.51
70411;BME280;57832;46.038;11.398;2022-07-25T01:21:03;96950.94;;;24.02;58.98
70411;BME280;57832;46.038;11.398;2022-07-25T01:23:28;96949.16;;;23.85;58.71
70411;BME280;57832;46.038;11.398;2022-07-25T01:25:54;96953.69;;;23.94;58.60
70411;BME280;57832;46.038;11.398;2022-07-25T01:28:20;96950.09;;;23.90;59.23
70411;BME280;57832;46.038;11.398;2022-07-25T01:30:45;96948.16;;;23.57;60.94
70411;BME280;57832;46.038;11.398;2022-07-25T01:33:15;96952.53;;;23.01;63.87
70411;BME280;57832;46.038;11.398;2022-07-25T01:35:41;96947.88;;;23.49;62.65
70411;BME280;57832;46.038;11.398;2022-07-25T01:38:07;96954.72;;;22.78;63.92
70411;BME280;57832;46.038;11.398;2022-07-25T01:40:32;96948.25;;;22.14;66.68
70411;BME280;57832;46.038;11.398;2022-07-25T01:42:58;96949.50;;;22.82;64.65
70411;BME280;57832;46.038;11.398;2022-07-25T01:45:23;96949.97;;;22.36;66.29
70411;BME280;57832;46.038;11.398;2022-07-25T01:47:49;96942.66;;;22.63;65.69
70411;BME280;57832;46.038;11.398;2022-07-25T01:50:14;96949.19;;;22.83;64.41
70411;BME280;57832;46.038;11.398;2022-07-25T01:52:40;96951.13;;;23.04;64.46
70411;BME280;57832;46.038;11.398;2022-07-25T01:55:06;96952.34;;;23.15;64.07
70411;BME280;57832;46.038;11.398;2022-07-25T01:57:32;96941.41;;;23.29;64.07
70411;BME280;57832;46.038;11.398;2022-07-25T01:59:58;96949.53;;;23.03;63.21
70411;BME280;57832;46.038;11.398;2022-07-25T02:02:24;96951.91;;;23.34;62.18
70411;BME280;57832;46.038;11.398;2022-07-25T02:04:50;96948.13;;;23.05;63.50
70411;BME280;57832;46.038;11.398;2022-07-25T02:07:15;96947.44;;;22.87;65.04
70411;BME280;57832;46.038;11.398;2022-07-25T02:09:41;96938.66;;;23.08;64.52
70411;BME280;57832;46.038;11.398;2022-07-25T02:12:07;96942.84;;;22.88;62.08
70411;BME280;57832;46.038;11.398;2022-07-25T02:14:32;96946.09;;;23.02;63.91
70411;BME280;57832;46.038;11.398;2022-07-25T02:16:58;96942.75;;;22.37;66.99
70411;BME280;57832;46.038;11.398;2022-07-25T02:19:24;96944.31;;;22.29;67.72
70411;BME280;57832;46.038;11.398;2022-07-25T02:21:49;96936.03;;;21.52;70.65
70411;BME280;57832;46.038;11.398;2022-07-25T02:24:15;96933.81;;;22.15;67.93
70411;BME280;57832;46.038;11.398;2022-07-25T02:26:41;96934.13;;;21.96;67.98
70411;BME280;57832;46.038;11.398;2022-07-25T02:29:06;96940.50;;;22.48;66.63
70411;BME280;57832;46.038;11.398;2022-07-25T02:31:32;96943.66;;;22.50;65.95
70411;BME280;57832;46.038;11.398;2022-07-25T02:33:58;96941.38;;;22.69;64.80
70411;BME280;57832;46.038;11.398;2022-07-25T02:36:23;96939.44;;;22.79;64.89
70411;BME280;57832;46.038;11.398;2022-07-25T02:38:50;96935.44;;;22.55;66.38
70411;BME280;57832;46.038;11.398;2022-07-25T02:41:15;96939.47;;;22.05;66.54
70411;BME280;57832;46.038;11.398;2022-07-25T02:43:41;96933.91;;;22.54;65.48
70411;BME280;57832;46.038;11.398;2022-07-25T02:46:06;96940.50;;;22.48;65.46
70411;BME280;57832;46.038;11.398;2022-07-25T02:48:32;96940.41;;;22.35;66.21
70411;BME280;57832;46.038;11.398;2022-07-25T02:50:57;96944.19;;;22.17;67.21
70411;BME280;57832;46.038;11.398;2022-07-25T02:53:23;96944.78;;;22.31;66.34
70411;BME280;57832;46.038;11.398;2022-07-25T02:55:48;96950.66;;;21.81;68.67
70411;BME280;57832;46.038;11.398;2022-07-25T02:58:14;96946.69;;;22.78;64.29
70411;BME280;57832;46.038;11.398;2022-07-25T03:00:40;96940.56;;;22.13;66.87
70411;BME280;57832;46.038;11.398;2022-07-25T03:03:05;96937.81;;;20.99;71.97
70411;BME280;57832;46.038;11.398;2022-07-25T03:05:31;96945.34;;;20.65;72.72
70411;BME280;57832;46.038;11.398;2022-07-25T03:07:57;96941.69;;;20.84;71.99
70411;BME280;57832;46.038;11.398;2022-07-25T03:10:22;96941.19;;;21.48;69.71
70411;BME280;57832;46.038;11.398;2022-07-25T03:12:48;96942.00;;;22.01;68.19
70411;BME280;57832;46.038;11.398;2022-07-25T03:15:13;96945.91;;;22.13;68.10
70411;BME280;57832;46.038;11.398;2022-07-25T03:17:39;96940.69;;;22.16;67.50
70411;BME280;57832;46.038;11.398;2022-07-25T03:20:06;96947.03;;;21.59;70.12
70411;BME280;57832;46.038;11.398;2022-07-25T03:22:32;96936.81;;;21.96;68.38
70411;BME280;57832;46.038;11.398;2022-07-25T03:24:58;96939.59;;;21.21;70.82
70411;BME280;57832;46.038;11.398;2022-07-25T03:27:23;96937.72;;;21.39;70.30
70411;BME280;57832;46.038;11.398;2022-07-25T03:29:49;96945.09;;;21.33;70.30
70411;BME280;57832;46.038;11.398;2022-07-25T03:32:14;96936.34;;;21.94;68.34
70411;BME280;57832;46.038;11.398;2022-07-25T03:34:40;96939.19;;;21.89;68.25
70411;BME280;57832;46.038;11.398;2022-07-25T03:37:05;96942.00;;;21.75;68.23
70411;BME280;57832;46.038;11.398;2022-07-25T03:39:32;96944.66;;;22.10;67.79
70411;BME280;57832;46.038;11.398;2022-07-25T03:41:57;96939.34;;;21.58;69.27
70411;BME280;57832;46.038;11.398;2022-07-25T03:44:23;96939.78;;;22.12;67.08
70411;BME280;57832;46.038;11.398;2022-07-25T03:46:49;96953.16;;;21.68;67.58
70411;BME280;57832;46.038;11.398;2022-07-25T03:49:15;96950.44;;;21.51;68.28
70411;BME280;57832;46.038;11.398;2022-07-25T03:51:41;96949.53;;;22.17;66.10
70411;BME280;57832;46.038;11.398;2022-07-25T03:54:07;96956.31;;;21.97;66.45
70411;BME280;57832;46.038;11.398;2022-07-25T03:56:44;96954.56;;;22.01;67.21
70411;BME280;57832;46.038;11.398;2022-07-25T03:59:14;96959.53;;;21.32;70.13
70411;BME280;57832;46.038;11.398;2022-07-25T04:01:40;96963.41;;;21.09;70.78
70411;BME280;57832;46.038;11.398;2022-07-25T04:04:06;96957.69;;;20.84;71.96
70411;BME280;57832;46.038;11.398;2022-07-25T04:06:32;96960.38;;;20.61;73.67
70411;BME280;57832;46.038;11.398;2022-07-25T04:08:58;96960.25;;;21.07;71.02
70411;BME280;57832;46.038;11.398;2022-07-25T04:11:24;96959.44;;;20.57;73.60
70411;BME280;57832;46.038;11.398;2022-07-25T04:13:50;96955.97;;;20.88;71.88
70411;BME280;57832;46.038;11.398;2022-07-25T04:16:16;96951.03;;;21.13;70.44
70411;BME280;57832;46.038;11.398;2022-07-25T04:18:42;96955.66;;;21.47;69.11
70411;BME280;57832;46.038;11.398;2022-07-25T04:21:08;96953.59;;;21.53;68.98
70411;BME280;57832;46.038;11.398;2022-07-25T04:23:34;96952.63;;;21.23;70.51
70411;BME280;57832;46.038;11.398;2022-07-25T04:26:00;96955.53;;;21.61;68.69
70411;BME280;57832;46.038;11.398;2022-07-25T04:28:25;96954.03;;;22.34;65.78
70411;BME280;57832;46.038;11.398;2022-07-25T04:30:52;96946.97;;;22.29;65.81
70411;BME280;57832;46.038;11.398;2022-07-25T04:37:00;96947.66;;;21.91;67.31
70411;BME280;57832;46.038;11.398;2022-07-25T04:54:15;96951.72;;;22.71;66.65
70411;BME280;57832;46.038;11.398;2022-07-25T04:57:28;96950.28;;;21.38;71.67
70411;BME280;57832;46.038;11.398;2022-07-25T05:04:32;96957.53;;;23.20;64.43
70411;BME280;57832;46.038;11.398;2022-07-25T05:08:01;96957.22;;;22.75;64.37
70411;BME280;57832;46.038;11.398;2022-07-25T05:18:48;96949.34;;;23.08;63.35
70411;BME280;57832;46.038;11.398;2022-07-25T05:32:40;96951.00;;;23.94;60.21
70411;BME280;57832;46.038;11.398;2022-07-25T05:36:17;96962.88;;;23.20;61.73
70411;BME280;57832;46.038;11.398;2022-07-25T07:41:43;96829.53;;;40.49;21.18
70411;BME280;57832;46.038;11.398;2022-07-25T07:44:33;96830.66;;;39.10;22.49
70411;BME280;57832;46.038;11.398;2022-07-25T08:01:41;96799.44;;;42.53;17.87
70411;BME280;57832;46.038;11.398;2022-07-25T08:05:23;96797.53;;;41.94;18.70
70411;BME280;57832;46.038;11.398;2022-07-25T08:19:22;96785.56;;;45.17;16.12
70411;BME280;57832;46.038;11.398;2022-07-25T11:17:49;96543.09;;;42.10;19.55
70411;BME280;57832;46.038;11.398;2022-07-25T11:59:40;96476.88;;;40.84;21.00
70411;BME280;57832;46.038;11.398;2022-07-25T12:02:06;96468.94;;;39.95;21.20
70411;BME280;57832;46.038;11.398;2022-07-25T12:04:32;96470.06;;;40.48;21.06
70411;BME280;57832;46.038;11.398;2022-07-25T12:07:03;96462.09;;;39.77;21.24
70411;BME280;57832;46.038;11.398;2022-07-25T12:09:30;96454.44;;;39.28;22.42
70411;BME280;57832;46.038;11.398;2022-07-25T12:12:02;96452.31;;;42.25;19.03
70411;BME280;57832;46.038;11.398;2022-07-25T12:14:28;96447.41;;;42.29;19.72
70411;BME280;57832;46.038;11.398;2022-07-25T12:16:53;96442.84;;;40.22;20.12
70411;BME280;57832;46.038;11.398;2022-07-25T12:19:20;96441.34;;;41.45;20.05
70411;BME280;57832;46.038;11.398;2022-07-25T12:21:46;96434.00;;;41.14;20.15
70411;BME280;57832;46.038;11.398;2022-07-25T12:24:11;96430.22;;;40.43;21.26
70411;BME280;57832;46.038;11.398;2022-07-25T12:26:37;96420.28;;;39.07;21.46
70411;BME280;57832;46.038;11.398;2022-07-25T12:29:03;96420.06;;;40.71;18.90
70411;BME280;57832;46.038;11.398;2022-07-25T12:31:28;96414.91;;;40.23;20.18
70411;BME280;57832;46.038;11.398;2022-07-25T12:33:54;96416.91;;;41.19;18.96
70411;BME280;57832;46.038;11.398;2022-07-25T12:36:20;96404.81;;;41.54;18.96
70411;BME280;57832;46.038;11.398;2022-07-25T12:38:45;96409.72;;;42.02;19.55
70411;BME280;57832;46.038;11.398;2022-07-25T12:41:11;96405.09;;;42.90;18.50
70411;BME280;57832;46.038;11.398;2022-07-25T12:43:36;96403.59;;;41.27;20.35
70411;BME280;57832;46.038;11.398;2022-07-25T12:46:03;96396.50;;;41.72;19.29
70411;BME280;57832;46.038;11.398;2022-07-25T12:48:29;96396.41;;;40.15;21.47
70411;BME280;57832;46.038;11.398;2022-07-25T12:50:55;96394.00;;;41.04;19.77
70411;BME280;57832;46.038;11.398;2022-07-25T12:53:20;96386.13;;;41.67;19.75
70411;BME280;57832;46.038;11.398;2022-07-25T12:55:46;96377.31;;;40.89;19.07
70411;BME280;57832;46.038;11.398;2022-07-25T12:58:11;96381.34;;;40.19;20.12
70411;BME280;57832;46.038;11.398;2022-07-25T13:00:39;96373.81;;;41.07;19.87
70411;BME280;57832;46.038;11.398;2022-07-25T13:03:05;96369.22;;;40.76;20.72
70411;BME280;57832;46.038;11.398;2022-07-25T13:05:30;96363.56;;;40.61;19.92
70411;BME280;57832;46.038;11.398;2022-07-25T13:07:56;96364.53;;;40.17;20.54
70411;BME280;57832;46.038;11.398;2022-07-25T13:10:22;96356.00;;;39.52;20.79
70411;BME280;57832;46.038;11.398;2022-07-25T13:40:49;96316.97;;;40.48;21.57
70411;BME280;57832;46.038;11.398;2022-07-25T13:53:19;96296.16;;;38.27;24.16
70411;BME280;57832;46.038;11.398;2022-07-25T13:55:48;96288.25;;;38.29;24.07
70411;BME280;57832;46.038;11.398;2022-07-25T13:58:14;96293.22;;;37.95;24.35
70411;BME280;57832;46.038;11.398;2022-07-25T14:00:40;96291.59;;;37.85;24.49
70411;BME280;57832;46.038;11.398;2022-07-25T14:03:05;96287.06;;;38.52;24.33
70411;BME280;57832;46.038;11.398;2022-07-25T14:05:31;96293.22;;;37.95;26.15
70411;BME280;57832;46.038;11.398;2022-07-25T14:08:01;96298.31;;;37.29;25.74
70411;BME280;57832;46.038;11.398;2022-07-25T14:10:27;96295.56;;;37.16;25.43
70411;BME280;57832;46.038;11.398;2022-07-25T14:12:52;96284.03;;;37.38;25.06
70411;BME280;57832;46.038;11.398;2022-07-25T14:15:18;96285.47;;;37.94;24.75
70411;BME280;57832;46.038;11.398;2022-07-25T14:17:44;96283.06;;;38.44;23.97
70411;BME280;57832;46.038;11.398;2022-07-25T14:20:10;96290.47;;;38.56;24.08
70411;BME280;57832;46.038;11.398;2022-07-25T14:22:37;96284.75;;;38.16;24.66
70411;BME280;57832;46.038;11.398;2022-07-25T14:25:04;96284.06;;;38.37;24.72
70411;BME280;57832;46.038;11.398;2022-07-25T14:27:30;96286.59;;;38.19;24.86
70411;BME280;57832;46.038;11.398;2022-07-25T14:29:55;96294.09;;;37.67;24.99
70411;BME280;57832;46.038;11.398;2022-07-25T14:32:21;96278.69;;;37.73;23.98
70411;BME280;57832;46.038;11.398;2022-07-25T14:34:47;96275.63;;;37.58;24.63
70411;BME280;57832;46.038;11.398;2022-07-25T14:37:12;96271.63;;;38.10;22.66
70411;BME280;57832;46.038;11.398;2022-07-25T14:39:38;96274.84;;;36.89;24.97
70411;BME280;57832;46.038;11.398;2022-07-25T14:42:03;96268.28;;;37.42;25.15
70411;BME280;57832;46.038;11.398;2022-07-25T14:44:29;96276.16;;;37.91;23.85
70411;BME280;57832;46.038;11.398;2022-07-25T14:46:55;96276.94;;;37.66;25.17
70411;BME280;57832;46.038;11.398;2022-07-25T14:49:22;96277.34;;;38.03;24.46
70411;BME280;57832;46.038;11.398;2022-07-25T14:51:48;96277.00;;;38.14;22.56
70411;BME280;57832;46.038;11.398;2022-07-25T14:54:14;96264.34;;;37.94;24.14
70411;BME280;57832;46.038;11.398;2022-07-25T14:56:41;96263.59;;;37.81;22.49
70411;BME280;57832;46.038;11.398;2022-07-25T14:59:08;96260.94;;;37.39;24.60
70411;BME280;57832;46.038;11.398;2022-07-25T15:01:34;96267.28;;;37.74;24.80
70411;BME280;57832;46.038;11.398;2022-07-25T15:04:00;96265.88;;;37.83;24.51
70411;BME280;57832;46.038;11.398;2022-07-25T15:06:25;96257.22;;;37.58;25.73
70411;BME280;57832;46.038;11.398;2022-07-25T15:08:51;96258.56;;;37.54;24.31
70411;BME280;57832;46.038;11.398;2022-07-25T15:11:18;96255.25;;;37.72;24.16
70411;BME280;57832;46.038;11.398;2022-07-25T15:13:44;96249.88;;;37.68;24.65
70411;BME280;57832;46.038;11.398;2022-07-25T15:16:12;96248.44;;;36.70;26.52
70411;BME280;57832;46.038;11.398;2022-07-25T15:18:38;96234.16;;;37.59;23.91
70411;BME280;57832;46.038;11.398;2022-07-25T15:21:05;96241.94;;;37.35;25.04
70411;BME280;57832;46.038;11.398;2022-07-25T15:23:30;96242.38;;;37.34;24.27
70411;BME280;57832;46.038;11.398;2022-07-25T15:25:57;96236.56;;;37.57;23.96
70411;BME280;57832;46.038;11.398;2022-07-25T15:28:23;96237.00;;;37.43;23.92
70411;BME280;57832;46.038;11.398;2022-07-25T15:30:49;96240.84;;;37.33;24.83
70411;BME280;57832;46.038;11.398;2022-07-25T15:33:16;96241.25;;;37.44;25.48
70411;BME280;57832;46.038;11.398;2022-07-25T15:35:43;96243.88;;;37.22;25.33
70411;BME280;57832;46.038;11.398;2022-07-25T15:38:09;96246.25;;;36.64;25.18
70411;BME280;57832;46.038;11.398;2022-07-25T15:40:36;96236.06;;;36.65;24.51
70411;BME280;57832;46.038;11.398;2022-07-25T15:43:01;96231.16;;;37.02;25.03
70411;BME280;57832;46.038;11.398;2022-07-25T15:45:27;96226.72;;;36.04;26.52
70411;BME280;57832;46.038;11.398;2022-07-25T15:47:52;96234.75;;;36.57;25.51
70411;BME280;57832;46.038;11.398;2022-07-25T15:50:21;96230.16;;;36.54;25.93
70411;BME280;57832;46.038;11.398;2022-07-25T15:52:46;96236.44;;;36.05;27.50
70411;BME280;57832;46.038;11.398;2022-07-25T15:55:12;96235.16;;;35.43;28.30
70411;BME280;57832;46.038;11.398;2022-07-25T15:57:38;96231.38;;;36.65;25.40
70411;BME280;57832;46.038;11.398;2022-07-25T16:00:05;96227.41;;;36.08;27.81
70411;BME280;57832;46.038;11.398;2022-07-25T16:02:32;96229.00;;;36.38;26.94
70411;BME280;57832;46.038;11.398;2022-07-25T16:04:58;96231.00;;;35.88;27.82
70411;BME280;57832;46.038;11.398;2022-07-25T16:07:23;96227.31;;;36.57;26.69
70411;BME280;57832;46.038;11.398;2022-07-25T16:09:49;96232.38;;;36.42;25.30
70411;BME280;57832;46.038;11.398;2022-07-25T16:12:15;96219.56;;;36.10;26.71
70411;BME280;57832;46.038;11.398;2022-07-25T16:14:41;96220.53;;;35.33;28.65
70411;BME280;57832;46.038;11.398;2022-07-25T16:17:06;96220.00;;;35.22;28.33
70411;BME280;57832;46.038;11.398;2022-07-25T16:19:32;96215.28;;;35.43;28.60
70411;BME280;57832;46.038;11.398;2022-07-25T16:21:58;96209.56;;;35.37;28.32
70411;BME280;57832;46.038;11.398;2022-07-25T16:24:24;96215.63;;;35.61;27.92
70411;BME280;57832;46.038;11.398;2022-07-25T16:26:49;96207.63;;;35.38;28.64
70411;BME280;57832;46.038;11.398;2022-07-25T16:29:15;96201.56;;;35.46;28.55
70411;BME280;57832;46.038;11.398;2022-07-25T16:31:41;96196.47;;;35.48;28.42
70411;BME280;57832;46.038;11.398;2022-07-25T16:34:07;96206.69;;;35.61;28.10
70411;BME280;57832;46.038;11.398;2022-07-25T16:36:34;96204.97;;;35.34;28.27
70411;BME280;57832;46.038;11.398;2022-07-25T16:39:00;96209.44;;;35.24;28.56
70411;BME280;57832;46.038;11.398;2022-07-25T16:41:26;96217.47;;;35.31;28.76
70411;BME280;57832;46.038;11.398;2022-07-25T16:43:51;96203.97;;;35.44;28.55
70411;BME280;57832;46.038;11.398;2022-07-25T16:46:17;96198.47;;;34.91;28.90
70411;BME280;57832;46.038;11.398;2022-07-25T16:48:42;96191.56;;;34.87;28.79
70411;BME280;57832;46.038;11.398;2022-07-25T16:51:08;96189.25;;;34.85;29.06
70411;BME280;57832;46.038;11.398;2022-07-25T16:53:33;96204.16;;;35.17;29.04
70411;BME280;57832;46.038;11.398;2022-07-25T16:56:00;96190.91;;;35.36;27.82
70411;BME280;57832;46.038;11.398;2022-07-25T16:58:26;96191.09;;;35.45;27.75
70411;BME280;57832;46.038;11.398;2022-07-25T17:00:52;96195.50;;;35.39;28.24
70411;BME280;57832;46.038;11.398;2022-07-25T17:03:17;96183.22;;;35.30;28.97
70411;BME280;57832;46.038;11.398;2022-07-25T17:05:43;96191.06;;;34.52;30.14
70411;BME280;57832;46.038;11.398;2022-07-25T17:08:09;96183.97;;;34.38;29.83
70411;BME280;57832;46.038;11.398;2022-07-25T17:10:34;96186.34;;;33.88;30.21
70411;BME280;57832;46.038;11.398;2022-07-25T17:13:00;96193.28;;;33.93;30.51
70411;BME280;57832;46.038;11.398;2022-07-25T17:15:25;96183.38;;;34.03;30.39
70411;BME280;57832;46.038;11.398;2022-07-25T17:17:51;96192.78;;;34.22;29.94
70411;BME280;57832;46.038;11.398;2022-07-25T17:20:16;96188.72;;;33.86;30.61
70411;BME280;57832;46.038;11.398;2022-07-25T17:22:43;96196.69;;;33.97;29.86
70411;BME280;57832;46.038;11.398;2022-07-25T17:25:09;96195.56;;;34.18;29.22
70411;BME280;57832;46.038;11.398;2022-07-25T17:27:35;96186.25;;;33.95;29.13
70411;BME280;57832;46.038;11.398;2022-07-25T17:30:02;96196.31;;;33.71;30.07
70411;BME280;57832;46.038;11.398;2022-07-25T17:32:28;96187.28;;;33.78;30.39
70411;BME280;57832;46.038;11.398;2022-07-25T17:34:53;96186.34;;;33.64;30.87
70411;BME280;57832;46.038;11.398;2022-07-25T17:37:19;96193.53;;;33.75;30.25
70411;BME280;57832;46.038;11.398;2022-07-25T17:39:45;96184.97;;;33.53;30.71
70411;BME280;57832;46.038;11.398;2022-07-25T17:42:10;96183.41;;;33.79;30.37
70411;BME280;57832;46.038;11.398;2022-07-25T17:44:36;96185.84;;;33.70;30.32
70411;BME280;57832;46.038;11.398;2022-07-25T17:47:02;96186.81;;;33.59;30.75
70411;BME280;57832;46.038;11.398;2022-07-25T17:49:28;96183.63;;;33.37;33.60
70411;BME280;57832;46.038;11.398;2022-07-25T17:51:54;96185.22;;;33.62;30.98
70411;BME280;57832;46.038;11.398;2022-07-25T17:54:20;96190.28;;;33.60;30.62
70411;BME280;57832;46.038;11.398;2022-07-25T17:56:45;96182.31;;;33.49;31.33
70411;BME280;57832;46.038;11.398;2022-07-25T17:59:11;96187.63;;;33.56;32.01
70411;BME280;57832;46.038;11.398;2022-07-25T18:01:37;96194.91;;;33.36;31.47
70411;BME280;57832;46.038;11.398;2022-07-25T18:04:04;96198.94;;;33.27;31.66
70411;BME280;57832;46.038;11.398;2022-07-25T18:06:29;96195.09;;;33.21;31.64
70411;BME280;57832;46.038;11.398;2022-07-25T18:08:55;96198.69;;;33.14;31.42
70411;BME280;57832;46.038;11.398;2022-07-25T18:11:21;96203.78;;;33.12;32.50
70411;BME280;57832;46.038;11.398;2022-07-25T18:13:46;96204.94;;;33.11;31.72
70411;BME280;57832;46.038;11.398;2022-07-25T18:16:12;96208.78;;;33.14;31.43
70411;BME280;57832;46.038;11.398;2022-07-25T18:18:38;96214.38;;;33.03;31.52
70411;BME280;57832;46.038;11.398;2022-07-25T18:21:04;96208.41;;;33.12;33.10
70411;BME280;57832;46.038;11.398;2022-07-25T18:23:29;96217.75;;;32.80;32.54
70411;BME280;57832;46.038;11.398;2022-07-25T18:25:55;96216.97;;;33.10;33.15
70411;BME280;57832;46.038;11.398;2022-07-25T18:28:21;96241.09;;;32.70;32.66
70411;BME280;57832;46.038;11.398;2022-07-25T18:30:47;96233.09;;;32.59;34.02
70411;BME280;57832;46.038;11.398;2022-07-25T18:33:12;96240.31;;;32.70;32.74
70411;BME280;57832;46.038;11.398;2022-07-25T18:35:39;96251.25;;;32.66;33.30
70411;BME280;57832;46.038;11.398;2022-07-25T18:38:04;96253.53;;;32.67;33.25
70411;BME280;57832;46.038;11.398;2022-07-25T18:40:30;96261.41;;;32.55;33.83
70411;BME280;57832;46.038;11.398;2022-07-25T18:42:55;96258.78;;;32.51;33.84
70411;BME280;57832;46.038;11.398;2022-07-25T18:45:21;96271.94;;;32.04;35.97
70411;BME280;57832;46.038;11.398;2022-07-25T18:47:47;96279.88;;;31.76;35.70
70411;BME280;57832;46.038;11.398;2022-07-25T18:50:12;96281.09;;;31.72;35.44
70411;BME280;57832;46.038;11.398;2022-07-25T18:52:38;96282.91;;;31.85;35.63
70411;BME280;57832;46.038;11.398;2022-07-25T18:55:05;96288.22;;;32.00;35.71
70411;BME280;57832;46.038;11.398;2022-07-25T18:57:32;96302.19;;;31.98;34.00
70411;BME280;57832;46.038;11.398;2022-07-25T18:59:58;96299.41;;;31.46;36.01
70411;BME280;57832;46.038;11.398;2022-07-25T19:02:23;96302.06;;;31.53;35.93
70411;BME280;57832;46.038;11.398;2022-07-25T19:04:49;96305.53;;;31.64;36.15
70411;BME280;57832;46.038;11.398;2022-07-25T19:07:15;96304.34;;;31.65;36.38
70411;BME280;57832;46.038;11.398;2022-07-25T19:09:40;96299.41;;;31.46;36.91
70411;BME280;57832;46.038;11.398;2022-07-25T19:12:06;96298.75;;;31.24;37.70
70411;BME280;57832;46.038;11.398;2022-07-25T19:14:32;96307.66;;;31.17;38.08
70411;BME280;57832;46.038;11.398;2022-07-25T19:16:58;96318.16;;;31.04;38.41
70411;BME280;57832;46.038;11.398;2022-07-25T19:19:24;96325.59;;;30.46;40.09
70411;BME280;57832;46.038;11.398;2022-07-25T19:21:50;96344.50;;;30.42;40.41
70411;BME280;57832;46.038;11.398;2022-07-25T19:24:15;96354.16;;;30.72;39.45
70411;BME280;57832;46.038;11.398;2022-07-25T19:26:42;96366.78;;;29.71;43.32
70411;BME280;57832;46.038;11.398;2022-07-25T19:29:08;96372.16;;;29.60;45.37
70411;BME280;57832;46.038;11.398;2022-07-25T19:31:34;96380.09;;;30.51;40.23
70411;BME280;57832;46.038;11.398;2022-07-25T19:34:03;96386.22;;;30.27;41.54
70411;BME280;57832;46.038;11.398;2022-07-25T19:36:29;96387.19;;;29.53;42.06
70411;BME280;57832;46.038;11.398;2022-07-25T19:38:55;96392.41;;;30.20;40.55
70411;BME280;57832;46.038;11.398;2022-07-25T19:41:20;96388.78;;;29.69;41.42
70411;BME280;57832;46.038;11.398;2022-07-25T19:43:46;96375.16;;;29.40;45.71
70411;BME280;57832;46.038;11.398;2022-07-25T19:46:11;96366.75;;;29.52;42.79
70411;BME280;57832;46.038;11.398;2022-07-25T19:48:37;96369.53;;;28.97;44.91
70411;BME280;57832;46.038;11.398;2022-07-25T19:51:03;96377.66;;;29.00;46.70
70411;BME280;57832;46.038;11.398;2022-07-25T19:53:30;96381.31;;;28.71;48.52
70411;BME280;57832;46.038;11.398;2022-07-25T19:55:55;96394.50;;;28.34;50.11
70411;BME280;57832;46.038;11.398;2022-07-25T19:58:21;96400.25;;;28.33;48.87
70411;BME280;57832;46.038;11.398;2022-07-25T20:00:47;96407.69;;;28.47;47.40
70411;BME280;57832;46.038;11.398;2022-07-25T20:03:12;96394.13;;;28.81;45.99
70411;BME280;57832;46.038;11.398;2022-07-25T20:05:38;96402.91;;;28.71;46.38
70411;BME280;57832;46.038;11.398;2022-07-25T20:08:04;96402.78;;;28.60;49.40
70411;BME280;57832;46.038;11.398;2022-07-25T20:10:29;96398.41;;;28.89;50.52
70411;BME280;57832;46.038;11.398;2022-07-25T20:12:55;96400.19;;;29.26;49.32